Time;durP1;ratioP1;P1;durP2;ratioP2;P2;SDS_P1;SDS_P2;PMS_P1;PMS_P2;Temp;Humidity;BMP_temperature;BMP_pressure;BME280_temperature;BME280_humidity;BME280_pressure;Samples;Min_cycle;Max_cycle;Signal;HPM_P1;HPM_P2
2020/12/27 00:00:20;;;;;;;2.40;2.20;;;5.40;99.90;;;;;;4938672;29;20188;-82
2020/12/27 00:02:46;;;;;;;2.40;2.20;;;5.40;99.90;;;;;;4935542;29;20252;-83
2020/12/27 00:05:20;;;;;;;2.35;2.15;;;5.30;99.90;;;;;;4934459;29;20426;-83
2020/12/27 00:07:49;;;;;;;3.78;1.95;;;5.40;99.90;;;;;;4922150;29;20224;-83
2020/12/27 00:10:15;;;;;;;2.40;2.20;;;5.40;99.90;;;;;;4953861;29;20289;-80
2020/12/27 00:12:41;;;;;;;2.43;2.23;;;5.50;99.90;;;;;;4952291;29;20475;-83
2020/12/27 00:15:07;;;;;;;2.50;2.30;;;5.40;99.90;;;;;;4938267;29;20494;-82
2020/12/27 00:17:35;;;;;;;2.07;1.97;;;5.30;99.90;;;;;;4952900;28;20424;-82
2020/12/27 00:20:04;;;;;;;1.95;1.85;;;5.30;99.90;;;;;;4938504;29;20440;-83
2020/12/27 00:22:30;;;;;;;2.30;2.15;;;5.30;99.90;;;;;;4933288;29;20557;-82
2020/12/27 00:24:56;;;;;;;2.33;2.13;;;5.40;99.90;;;;;;4953598;29;20192;-80
2020/12/27 00:27:21;;;;;;;9.50;2.20;;;5.30;99.90;;;;;;4922407;29;20540;-81
2020/12/27 00:29:52;;;;;;;1.95;1.85;;;5.30;99.90;;;;;;4921624;29;20854;-83
2020/12/27 00:32:18;;;;;;;2.88;1.92;;;5.30;99.90;;;;;;4937566;29;20299;-82
2020/12/27 00:34:49;;;;;;;2.13;2.00;;;5.30;99.90;;;;;;4935940;29;20173;-82
2020/12/27 00:37:20;;;;;;;1.92;1.83;;;5.20;99.90;;;;;;4937778;29;20528;-81
2020/12/27 00:39:49;;;;;;;2.17;1.90;;;5.20;99.90;;;;;;4937516;29;20240;-82
2020/12/27 00:42:14;;;;;;;1.98;1.85;;;5.20;99.90;;;;;;4937272;29;20209;-81
2020/12/27 00:44:42;;;;;;;2.07;1.97;;;5.20;99.90;;;;;;4945784;29;20532;-81
2020/12/27 00:47:11;;;;;;;2.05;1.95;;;5.20;99.90;;;;;;4945335;28;20441;-82
2020/12/27 00:49:37;;;;;;;1.95;1.83;;;5.20;99.90;;;;;;4935473;29;20192;-81
2020/12/27 00:52:03;;;;;;;2.13;2.03;;;5.10;99.90;;;;;;4944344;29;20213;-82
2020/12/27 00:54:29;;;;;;;2.95;2.25;;;5.20;99.90;;;;;;4972295;28;20430;-83
2020/12/27 00:56:57;;;;;;;2.00;1.77;;;5.20;99.90;;;;;;4919077;29;20185;-82
2020/12/27 00:59:24;;;;;;;2.03;1.92;;;5.10;99.90;;;;;;4918235;29;20473;-81
2020/12/27 01:01:57;;;;;;;2.55;1.83;;;5.10;99.90;;;;;;4945111;29;20259;-81
2020/12/27 01:05:04;;;;;;;1.70;1.60;;;5.10;99.90;;;;;;4968895;28;20604;-82
2020/12/27 01:07:33;;;;;;;1.80;1.70;;;5.10;99.90;;;;;;4974443;28;20210;-81
2020/12/27 01:10:16;;;;;;;1.50;1.40;;;5.20;99.90;;;;;;4934890;29;20520;-82
2020/12/27 01:12:44;;;;;;;2.40;1.90;;;5.20;99.90;;;;;;4918760;29;20305;-81
2020/12/27 01:15:11;;;;;;;5.30;1.90;;;5.10;99.90;;;;;;4948122;28;20713;-82
2020/12/27 01:18:02;;;;;;;1.85;1.70;;;5.10;99.90;;;;;;4949071;28;20591;-81
2020/12/27 01:20:28;;;;;;;1.90;1.80;;;5.10;99.90;;;;;;4942640;29;20181;-81
2020/12/27 01:22:55;;;;;;;1.63;1.50;;;5.10;99.90;;;;;;4925707;29;20192;-81
2020/12/27 01:25:32;;;;;;;1.95;1.85;;;5.00;99.90;;;;;;4928006;29;20284;-82
2020/12/27 01:28:01;;;;;;;1.85;1.75;;;5.00;99.90;;;;;;4933268;29;20212;-82
2020/12/27 01:30:29;;;;;;;1.90;1.80;;;5.10;99.90;;;;;;4917808;29;20185;-81
2020/12/27 01:33:01;;;;;;;2.92;1.67;;;5.10;99.90;;;;;;4917939;29;20209;-80
2020/12/27 01:35:33;;;;;;;1.90;1.80;;;5.10;99.90;;;;;;4933638;29;20182;-80
2020/12/27 01:38:02;;;;;;;2.00;1.90;;;5.20;99.90;;;;;;4923049;29;20208;-82
2020/12/27 01:40:30;;;;;;;1.75;1.65;;;5.20;99.90;;;;;;4936527;29;20184;-78
2020/12/27 01:42:59;;;;;;;1.50;1.40;;;5.10;99.90;;;;;;4950791;29;20196;-80
2020/12/27 01:45:28;;;;;;;1.60;1.50;;;5.10;99.90;;;;;;4967569;28;20512;-81
2020/12/27 01:48:15;;;;;;;2.80;1.60;;;5.10;99.90;;;;;;4948782;28;20211;-82
2020/12/27 01:50:51;;;;;;;2.03;1.83;;;5.10;99.90;;;;;;4944146;29;20180;-82
2020/12/27 01:53:32;;;;;;;1.63;1.52;;;5.00;99.90;;;;;;4952080;29;20220;-82
2020/12/27 01:56:01;;;;;;;1.65;1.55;;;5.00;99.90;;;;;;4955173;28;20192;-81
2020/12/27 01:58:32;;;;;;;2.15;2.05;;;5.00;99.90;;;;;;4933039;29;20247;-81
2020/12/27 02:01:09;;;;;;;1.73;1.60;;;5.10;99.90;;;;;;4930269;29;20188;-81
2020/12/27 02:03:44;;;;;;;2.30;2.10;;;4.90;99.90;;;;;;4966682;28;20201;-81
2020/12/27 02:06:21;;;;;;;1.80;1.70;;;5.00;99.90;;;;;;4968111;28;20638;-81
2020/12/27 02:08:52;;;;;;;1.58;1.48;;;5.00;99.90;;;;;;4941330;29;20207;-81
2020/12/27 02:11:30;;;;;;;2.38;1.90;;;4.90;99.90;;;;;;4933037;29;20192;-82
2020/12/27 02:13:59;;;;;;;1.90;1.80;;;5.00;99.90;;;;;;4950228;29;20596;-81
2020/12/27 02:16:30;;;;;;;2.00;1.77;;;5.00;99.90;;;;;;4947664;29;20476;-81
2020/12/27 02:19:19;;;;;;;1.73;1.63;;;5.00;99.90;;;;;;4941875;28;20217;-82
2020/12/27 02:21:51;;;;;;;2.08;1.95;;;4.90;99.90;;;;;;4934107;29;20194;-82
2020/12/27 02:24:37;;;;;;;1.85;1.75;;;5.00;99.90;;;;;;4917787;29;20533;-82
2020/12/27 02:27:05;;;;;;;2.10;2.00;;;5.10;99.90;;;;;;4927430;29;20199;-83
2020/12/27 02:29:34;;;;;;;1.90;1.80;;;5.20;99.90;;;;;;4954494;28;20428;-82
2020/12/27 02:32:09;;;;;;;1.77;1.67;;;5.00;99.90;;;;;;4945036;29;20185;-83
2020/12/27 02:34:40;;;;;;;2.03;1.92;;;5.20;99.90;;;;;;4921038;29;20196;-82
2020/12/27 02:37:09;;;;;;;3.00;1.70;;;5.20;99.90;;;;;;4946961;29;20188;-82
2020/12/27 02:39:56;;;;;;;1.70;1.60;;;5.10;99.90;;;;;;4940225;29;20202;-81
2020/12/27 02:42:26;;;;;;;2.10;2.00;;;5.10;99.90;;;;;;4953827;29;20691;-82
2020/12/27 02:45:10;;;;;;;1.90;1.80;;;5.20;99.90;;;;;;4940354;29;20607;-81
2020/12/27 02:47:56;;;;;;;2.03;1.88;;;5.20;99.90;;;;;;4939887;29;20191;-83
2020/12/27 02:50:40;;;;;;;2.22;2.10;;;5.30;99.90;;;;;;4934405;29;20567;-82
2020/12/27 02:53:16;;;;;;;1.92;1.83;;;5.20;99.90;;;;;;4939352;29;20207;-81
2020/12/27 02:55:42;;;;;;;2.17;1.98;;;5.20;99.90;;;;;;4955400;29;20200;-81
2020/12/27 02:58:10;;;;;;;1.83;1.73;;;5.20;99.90;;;;;;4971077;28;20618;-81
2020/12/27 03:00:42;;;;;;;2.10;1.90;;;5.20;99.90;;;;;;4924800;28;20492;-82
2020/12/27 03:03:33;;;;;;;2.65;1.80;;;5.20;99.90;;;;;;4946642;29;20169;-81
2020/12/27 03:06:12;;;;;;;2.00;1.65;;;5.20;99.90;;;;;;4937668;29;20200;-82
2020/12/27 03:08:54;;;;;;;2.70;2.42;;;5.20;99.90;;;;;;4939929;29;20237;-83
2020/12/27 03:11:34;;;;;;;1.90;1.80;;;5.30;99.90;;;;;;4917051;29;20176;-83
2020/12/27 03:14:07;;;;;;;1.92;1.83;;;5.30;99.90;;;;;;4939206;29;20235;-80
2020/12/27 03:16:35;;;;;;;2.30;2.10;;;5.20;99.90;;;;;;4944141;29;20208;-80
2020/12/27 03:19:24;;;;;;;1.73;1.63;;;5.30;99.90;;;;;;4927596;29;20204;-80
2020/12/27 03:22:06;;;;;;;1.70;1.60;;;5.30;99.90;;;;;;4952857;29;20279;-80
2020/12/27 03:24:55;;;;;;;2.10;1.80;;;5.30;99.90;;;;;;4950694;29;20180;-80
2020/12/27 03:27:25;;;;;;;1.90;1.60;;;5.30;99.90;;;;;;4919555;29;20205;-81
2020/12/27 03:29:55;;;;;;;2.08;1.88;;;5.20;99.90;;;;;;4927326;29;20181;-81
2020/12/27 03:32:33;;;;;;;2.35;2.15;;;5.20;99.90;;;;;;4938211;28;20653;-81
2020/12/27 03:35:02;;;;;;;1.55;1.45;;;5.30;99.90;;;;;;4953182;29;20169;-83
2020/12/27 03:37:31;;;;;;;2.03;1.83;;;5.30;99.90;;;;;;4938375;29;20220;-81
2020/12/27 03:40:36;;;;;;;1.90;1.80;;;5.20;99.90;;;;;;4941181;29;20193;-81
2020/12/27 03:43:12;;;;;;;1.70;1.60;;;5.30;99.90;;;;;;4919853;29;20177;-81
2020/12/27 03:45:42;;;;;;;1.60;1.50;;;5.20;99.90;;;;;;4937375;29;20192;-81
2020/12/27 03:48:29;;;;;;;2.05;1.95;;;5.30;99.90;;;;;;4953066;28;20304;-82
2020/12/27 03:51:10;;;;;;;1.67;1.58;;;5.10;99.90;;;;;;4933517;28;20196;-81
2020/12/27 03:53:37;;;;;;;2.33;1.50;;;5.20;99.90;;;;;;4918801;29;20232;-83
2020/12/27 03:56:31;;;;;;;3.75;1.70;;;5.30;99.90;;;;;;4937235;29;20208;-82
2020/12/27 03:59:38;;;;;;;2.00;1.77;;;5.20;99.90;;;;;;4945933;28;20519;-83
2020/12/27 04:02:26;;;;;;;2.08;1.90;;;5.20;99.90;;;;;;4938271;29;20196;-81
2020/12/27 04:04:55;;;;;;;1.60;1.50;;;5.20;99.90;;;;;;4920863;29;20248;-81
2020/12/27 04:07:23;;;;;;;1.60;1.50;;;5.20;99.90;;;;;;4950429;29;20184;-81
2020/12/27 04:09:56;;;;;;;1.52;1.42;;;5.20;99.90;;;;;;4934098;29;20440;-81
2020/12/27 04:12:22;;;;;;;1.50;1.40;;;5.20;99.90;;;;;;4969463;28;20208;-80
2020/12/27 04:14:49;;;;;;;1.70;1.60;;;5.20;99.90;;;;;;4947163;28;20575;-81
2020/12/27 04:17:22;;;;;;;2.40;1.60;;;5.30;99.90;;;;;;4953568;29;20216;-81
2020/12/27 04:19:50;;;;;;;1.60;1.50;;;5.30;99.90;;;;;;4942800;29;20188;-81
2020/12/27 04:22:19;;;;;;;1.33;1.23;;;5.30;99.90;;;;;;4972524;28;20250;-80
2020/12/27 04:24:57;;;;;;;1.60;1.40;;;5.30;99.90;;;;;;4924663;29;20177;-80
2020/12/27 04:27:34;;;;;;;1.55;1.45;;;5.40;99.90;;;;;;4953095;29;20188;-80
2020/12/27 04:30:04;;;;;;;1.77;1.50;;;5.30;99.90;;;;;;4952817;29;20176;-81
2020/12/27 04:32:41;;;;;;;1.70;1.60;;;5.40;99.90;;;;;;4937185;29;20227;-81
2020/12/27 04:35:22;;;;;;;1.65;1.55;;;5.30;99.90;;;;;;4953106;29;20181;-82
2020/12/27 04:37:49;;;;;;;2.63;1.55;;;5.30;99.90;;;;;;4919484;29;20181;-81
2020/12/27 04:40:27;;;;;;;1.65;1.55;;;5.50;99.90;;;;;;4918213;29;20182;-80
2020/12/27 04:42:55;;;;;;;1.60;1.50;;;5.40;99.90;;;;;;4936168;29;20173;-80
2020/12/27 04:45:32;;;;;;;1.67;1.58;;;5.30;99.90;;;;;;4952832;28;20677;-81
2020/12/27 04:48:37;;;;;;;4.15;1.45;;;5.30;99.90;;;;;;4936288;29;20300;-81
2020/12/27 04:51:21;;;;;;;1.77;1.67;;;5.40;99.90;;;;;;4968946;28;20250;-81
2020/12/27 04:54:13;;;;;;;1.55;1.45;;;5.40;99.90;;;;;;4957808;28;20330;-82
2020/12/27 04:56:54;;;;;;;1.35;1.25;;;5.30;99.90;;;;;;4907221;29;20696;-82
2020/12/27 04:59:25;;;;;;;1.52;1.42;;;5.30;99.90;;;;;;4918692;29;20185;-82
2020/12/27 05:01:55;;;;;;;1.35;1.20;;;5.40;99.90;;;;;;4933586;29;20236;-83
2020/12/27 05:04:48;;;;;;;1.23;1.13;;;5.30;99.90;;;;;;4936805;28;20227;-83
2020/12/27 05:07:24;;;;;;;1.20;1.10;;;5.30;99.90;;;;;;4923352;29;20252;-82
2020/12/27 05:10:16;;;;;;;1.48;1.33;;;5.30;99.90;;;;;;4917658;29;20208;-84
2020/12/27 05:12:48;;;;;;;2.05;1.30;;;5.50;99.90;;;;;;4933556;29;20220;-83
2020/12/27 05:15:19;;;;;;;1.38;1.27;;;5.20;99.90;;;;;;4933442;28;20574;-83
2020/12/27 05:17:50;;;;;;;1.30;1.30;;;5.40;99.90;;;;;;4951304;29;20197;-82
2020/12/27 05:20:22;;;;;;;1.40;1.30;;;5.30;99.90;;;;;;4919282;29;20199;-82
2020/12/27 05:22:58;;;;;;;1.40;1.30;;;5.30;99.90;;;;;;4939832;28;20219;-82
2020/12/27 05:25:39;;;;;;;1.55;1.45;;;5.30;99.90;;;;;;4917242;29;20177;-83
2020/12/27 05:28:14;;;;;;;1.40;1.30;;;5.30;99.90;;;;;;4901801;29;20181;-83
2020/12/27 05:31:14;;;;;;;1.25;1.20;;;5.30;99.90;;;;;;4959382;28;20220;-83
2020/12/27 05:33:58;;;;;;;1.20;1.20;;;5.30;99.90;;;;;;4967600;28;20524;-83
2020/12/27 05:37:03;;;;;;;1.40;1.30;;;5.40;99.90;;;;;;4936998;29;20192;-83
2020/12/27 05:40:07;;;;;;;1.50;1.40;;;5.30;99.90;;;;;;4953236;28;20188;-83
2020/12/27 05:43:16;;;;;;;1.20;1.10;;;5.40;99.90;;;;;;4938287;28;20272;-83
2020/12/27 05:45:55;;;;;;;1.30;1.20;;;5.10;99.90;;;;;;4969004;28;20633;-83
2020/12/27 05:48:23;;;;;;;1.70;1.60;;;5.30;99.90;;;;;;4933217;29;20618;-83
2020/12/27 05:50:54;;;;;;;2.30;1.50;;;5.30;99.90;;;;;;4951926;28;20197;-82
2020/12/27 05:53:32;;;;;;;1.30;1.30;;;5.20;99.90;;;;;;4935178;29;20204;-82
2020/12/27 05:56:07;;;;;;;1.30;1.30;;;5.30;99.90;;;;;;4934734;29;20193;-82
2020/12/27 05:58:41;;;;;;;1.52;1.20;;;5.30;99.90;;;;;;4931275;29;20484;-82
2020/12/27 06:01:23;;;;;;;1.40;1.30;;;5.30;99.90;;;;;;4934668;29;20188;-81
2020/12/27 06:04:00;;;;;;;1.40;1.30;;;5.30;99.90;;;;;;4916731;29;20189;-80
2020/12/27 06:06:41;;;;;;;1.10;1.10;;;5.30;99.90;;;;;;4919747;29;20204;-81
2020/12/27 06:09:08;;;;;;;1.30;1.20;;;5.30;99.90;;;;;;4959384;28;20686;-83
2020/12/27 06:11:55;;;;;;;1.10;1.10;;;5.40;99.90;;;;;;4948054;29;20184;-83
2020/12/27 06:14:43;;;;;;;1.10;1.10;;;5.30;99.90;;;;;;4951522;28;20240;-82
2020/12/27 06:18:08;;;;;;;1.40;1.30;;;5.30;99.90;;;;;;4942407;29;20200;-81
2020/12/27 06:21:07;;;;;;;1.20;1.10;;;5.30;99.90;;;;;;4944631;29;20207;-81
2020/12/27 06:23:39;;;;;;;1.23;1.10;;;5.30;99.90;;;;;;4935407;29;20220;-81
2020/12/27 06:26:09;;;;;;;1.70;1.60;;;5.30;99.90;;;;;;4942104;28;20312;-80
2020/12/27 06:28:45;;;;;;;3.33;1.00;;;5.30;99.90;;;;;;4932318;29;20185;-83
2020/12/27 06:31:26;;;;;;;1.35;1.25;;;5.30;99.90;;;;;;4929183;29;20188;-81
2020/12/27 06:34:02;;;;;;;3.33;1.17;;;5.30;99.90;;;;;;4950283;28;20543;-81
2020/12/27 06:36:43;;;;;;;1.10;1.10;;;5.50;99.90;;;;;;4947484;28;20181;-81
2020/12/27 06:39:29;;;;;;;1.33;1.10;;;5.40;99.90;;;;;;4902868;29;20193;-81
2020/12/27 06:42:16;;;;;;;1.00;1.00;;;5.40;99.90;;;;;;4932472;29;20862;-81
2020/12/27 06:45:02;;;;;;;1.40;1.30;;;5.40;99.90;;;;;;4950313;28;20324;-82
2020/12/27 06:47:54;;;;;;;3.38;1.10;;;5.40;99.90;;;;;;4922204;29;20717;-83
2020/12/27 06:50:42;;;;;;;1.20;1.20;;;5.40;99.90;;;;;;4950484;29;20222;-81
2020/12/27 06:53:12;;;;;;;1.10;1.10;;;5.50;99.90;;;;;;4935200;29;20212;-81
2020/12/27 06:56:12;;;;;;;1.30;1.20;;;5.50;99.90;;;;;;4934716;28;20260;-82
2020/12/27 06:59:01;;;;;;;1.15;1.13;;;5.50;99.90;;;;;;4918914;29;20631;-81
2020/12/27 07:01:28;;;;;;;1.95;1.75;;;5.50;99.90;;;;;;4951101;29;20619;-80
2020/12/27 07:04:16;;;;;;;1.17;1.07;;;5.60;99.90;;;;;;4932233;29;20192;-81
2020/12/27 07:06:46;;;;;;;1.20;1.10;;;5.60;99.90;;;;;;4948006;29;20537;-81
2020/12/27 07:09:26;;;;;;;1.38;1.25;;;5.60;99.90;;;;;;4936189;29;20271;-81
2020/12/27 07:12:05;;;;;;;1.10;1.10;;;5.60;99.90;;;;;;4934066;29;20236;-81
2020/12/27 07:14:42;;;;;;;3.50;1.10;;;5.70;99.90;;;;;;4923126;29;20806;-80
2020/12/27 07:17:11;;;;;;;1.50;1.40;;;5.60;99.90;;;;;;4936267;29;20194;-82
2020/12/27 07:19:42;;;;;;;1.65;1.30;;;5.60;99.90;;;;;;4954223;29;20577;-81
2020/12/27 07:22:14;;;;;;;1.07;1.07;;;5.60;99.90;;;;;;4945106;29;20209;-81
2020/12/27 07:24:41;;;;;;;1.20;1.20;;;5.60;99.90;;;;;;4958001;28;20440;-81
2020/12/27 07:27:10;;;;;;;1.10;1.00;;;5.60;99.90;;;;;;4954587;29;20252;-80
2020/12/27 07:29:41;;;;;;;1.35;1.25;;;5.60;99.90;;;;;;4937958;29;20177;-80
2020/12/27 07:32:16;;;;;;;1.55;1.45;;;5.60;99.90;;;;;;4939438;29;20267;-80
2020/12/27 07:34:47;;;;;;;0.95;0.95;;;5.30;99.90;;;;;;4947229;29;20688;-80
2020/12/27 07:37:15;;;;;;;1.70;1.45;;;5.60;99.90;;;;;;4920107;29;20181;-82
2020/12/27 07:39:54;;;;;;;1.17;1.08;;;5.60;99.90;;;;;;4940909;29;20626;-80
2020/12/27 07:42:28;;;;;;;1.27;1.17;;;5.60;99.90;;;;;;4954264;29;20235;-80
2020/12/27 07:45:02;;;;;;;1.10;1.10;;;5.60;99.90;;;;;;4949852;28;20523;-80
2020/12/27 07:47:42;;;;;;;1.10;1.10;;;5.60;99.90;;;;;;4919970;29;20173;-80
2020/12/27 07:50:18;;;;;;;0.90;0.90;;;5.60;99.90;;;;;;4951094;28;20229;-83
2020/12/27 07:52:57;;;;;;;1.00;1.00;;;5.60;99.90;;;;;;4919049;29;20670;-82
2020/12/27 07:55:29;;;;;;;0.95;0.90;;;5.60;99.90;;;;;;4938940;28;20193;-80
2020/12/27 07:57:59;;;;;;;1.30;1.20;;;5.60;99.90;;;;;;4935712;29;20244;-80
2020/12/27 08:00:34;;;;;;;1.10;1.10;;;5.60;99.90;;;;;;4934802;29;20639;-80
2020/12/27 08:03:08;;;;;;;1.23;1.13;;;5.70;99.90;;;;;;4920406;29;20192;-80
2020/12/27 08:05:42;;;;;;;2.10;1.10;;;5.70;99.90;;;;;;4919622;29;20188;-82
2020/12/27 08:08:12;;;;;;;0.90;0.90;;;5.70;99.90;;;;;;4921242;29;20254;-82
2020/12/27 08:10:41;;;;;;;1.20;1.20;;;5.70;99.90;;;;;;4937842;29;20629;-81
2020/12/27 08:13:11;;;;;;;1.10;1.10;;;5.70;99.90;;;;;;4936066;29;20204;-83
2020/12/27 08:15:45;;;;;;;1.20;1.10;;;5.70;99.90;;;;;;4953189;28;20271;-81
2020/12/27 08:18:11;;;;;;;1.30;1.20;;;5.70;99.90;;;;;;4929196;29;20251;-81
2020/12/27 08:20:47;;;;;;;1.40;1.30;;;5.70;99.90;;;;;;4918650;29;20189;-81
2020/12/27 08:23:20;;;;;;;1.30;1.20;;;5.70;99.90;;;;;;4928108;29;20208;-80
2020/12/27 08:26:01;;;;;;;1.55;1.45;;;5.70;99.90;;;;;;4968437;28;20204;-81
2020/12/27 08:28:27;;;;;;;2.55;1.30;;;5.70;99.90;;;;;;4934802;29;20213;-82
2020/12/27 08:30:53;;;;;;;1.25;1.23;;;5.80;99.90;;;;;;4937462;29;20192;-83
2020/12/27 08:33:24;;;;;;;1.42;1.38;;;5.80;99.90;;;;;;4936796;28;20529;-82
2020/12/27 08:35:52;;;;;;;1.80;1.40;;;5.80;99.90;;;;;;4937416;29;20251;-80
2020/12/27 08:38:35;;;;;;;1.20;1.20;;;5.90;99.90;;;;;;4953011;29;20176;-82
2020/12/27 08:41:14;;;;;;;1.30;1.20;;;5.90;99.90;;;;;;4968027;28;20328;-81
2020/12/27 08:44:04;;;;;;;1.00;1.00;;;5.80;99.90;;;;;;4969202;28;20173;-80
2020/12/27 08:46:38;;;;;;;1.33;1.23;;;5.70;99.90;;;;;;4934125;29;20223;-81
2020/12/27 08:49:07;;;;;;;1.48;1.38;;;5.80;99.90;;;;;;4918231;29;20173;-80
2020/12/27 08:51:38;;;;;;;1.63;1.52;;;5.80;99.90;;;;;;4947483;29;20234;-82
2020/12/27 08:54:14;;;;;;;1.50;1.40;;;5.90;99.90;;;;;;4929016;28;20208;-80
2020/12/27 08:56:42;;;;;;;1.20;1.10;;;5.90;99.90;;;;;;4959146;28;20169;-80
2020/12/27 08:59:17;;;;;;;1.50;1.40;;;5.90;99.90;;;;;;4948748;29;20252;-81
2020/12/27 09:01:43;;;;;;;1.50;1.40;;;6.00;99.90;;;;;;4930152;29;20193;-80
2020/12/27 09:04:23;;;;;;;1.70;1.60;;;5.90;99.90;;;;;;4950318;29;20223;-83
2020/12/27 09:06:59;;;;;;;1.60;1.50;;;6.00;99.90;;;;;;4933690;29;20196;-81
2020/12/27 09:09:28;;;;;;;1.20;1.20;;;6.00;99.90;;;;;;4921885;29;20181;-80
2020/12/27 09:12:08;;;;;;;1.55;1.45;;;5.90;99.90;;;;;;4937389;29;20188;-80
2020/12/27 09:14:40;;;;;;;1.60;1.50;;;5.90;99.90;;;;;;4952094;28;20232;-82
2020/12/27 09:17:15;;;;;;;1.38;1.38;;;5.90;99.90;;;;;;4933444;29;20256;-81
2020/12/27 09:19:46;;;;;;;1.50;1.40;;;5.90;99.90;;;;;;4935921;29;20268;-80
2020/12/27 09:22:17;;;;;;;1.65;1.55;;;5.80;99.90;;;;;;4952026;29;20280;-81
2020/12/27 09:24:58;;;;;;;1.30;1.20;;;5.70;99.90;;;;;;4918241;29;20177;-81
2020/12/27 09:27:24;;;;;;;1.30;1.20;;;5.70;99.90;;;;;;4960163;28;20188;-80
2020/12/27 09:30:02;;;;;;;1.20;1.10;;;5.60;99.90;;;;;;4952474;29;20188;-80
2020/12/27 09:32:34;;;;;;;1.30;1.20;;;5.60;99.90;;;;;;4924849;29;20697;-80
2020/12/27 09:35:05;;;;;;;1.33;1.10;;;5.50;99.90;;;;;;4925124;29;20235;-82
2020/12/27 09:37:38;;;;;;;1.40;1.30;;;5.40;99.90;;;;;;4944573;29;20184;-81
2020/12/27 09:40:06;;;;;;;1.40;1.30;;;5.40;99.90;;;;;;4934701;29;20654;-80
2020/12/27 09:42:36;;;;;;;1.10;1.10;;;5.30;99.90;;;;;;4916935;29;20188;-81
2020/12/27 09:45:17;;;;;;;1.10;1.00;;;5.60;99.90;;;;;;4951248;28;20621;-81
2020/12/27 09:47:57;;;;;;;1.08;1.00;;;5.30;99.90;;;;;;4955093;28;20919;-82
2020/12/27 09:50:37;;;;;;;2.33;1.20;;;5.30;99.90;;;;;;4941946;29;20207;-81
2020/12/27 09:53:04;;;;;;;1.10;1.00;;;5.20;99.90;;;;;;4915701;29;20571;-81
2020/12/27 09:55:31;;;;;;;1.40;1.30;;;5.30;99.90;;;;;;4951383;28;20656;-82
2020/12/27 09:58:00;;;;;;;1.10;1.00;;;5.20;99.90;;;;;;4944521;29;20629;-80
2020/12/27 10:00:31;;;;;;;1.17;1.08;;;5.30;99.90;;;;;;4936181;29;20220;-82
2020/12/27 10:02:57;;;;;;;1.20;1.10;;;5.30;99.90;;;;;;4940418;29;20212;-80
2020/12/27 10:05:25;;;;;;;1.25;1.15;;;5.30;99.90;;;;;;4942146;29;20514;-82
2020/12/27 10:07:55;;;;;;;1.38;1.27;;;5.30;99.90;;;;;;4939153;29;20200;-80
2020/12/27 10:10:28;;;;;;;1.00;1.00;;;5.30;99.90;;;;;;4939179;28;20200;-82
2020/12/27 10:12:54;;;;;;;1.40;1.30;;;5.30;99.90;;;;;;4943080;28;20700;-81
2020/12/27 10:15:22;;;;;;;1.30;1.13;;;5.40;99.90;;;;;;4935699;29;20242;-82
2020/12/27 10:17:48;;;;;;;1.40;1.30;;;5.40;99.90;;;;;;4935760;29;20220;-82
2020/12/27 10:20:19;;;;;;;1.47;1.40;;;5.40;99.90;;;;;;4941905;29;20488;-83
2020/12/27 10:22:47;;;;;;;1.55;1.40;;;5.40;99.90;;;;;;4961532;28;20439;-80
2020/12/27 10:25:19;;;;;;;1.10;1.10;;;5.50;99.90;;;;;;4939087;29;20660;-83
2020/12/27 10:27:47;;;;;;;1.65;1.50;;;5.50;99.90;;;;;;4948737;28;20189;-81
2020/12/27 10:30:13;;;;;;;1.30;1.20;;;5.50;99.90;;;;;;4934113;29;20291;-82
2020/12/27 10:32:41;;;;;;;1.45;1.27;;;5.60;99.90;;;;;;4943710;29;20207;-83
2020/12/27 10:35:09;;;;;;;1.40;1.30;;;5.60;99.90;;;;;;4960758;28;20202;-81
2020/12/27 10:37:37;;;;;;;1.50;1.40;;;5.60;99.90;;;;;;4953158;28;20937;-85
2020/12/27 10:40:03;;;;;;;3.83;1.20;;;5.70;99.90;;;;;;4937900;29;20196;-85
2020/12/27 10:42:29;;;;;;;1.23;1.13;;;5.70;99.90;;;;;;4961718;28;20188;-81
2020/12/27 10:44:55;;;;;;;1.30;1.23;;;5.70;99.90;;;;;;4936515;29;20427;-83
2020/12/27 10:47:21;;;;;;;1.40;1.20;;;5.60;99.90;;;;;;4950026;29;20454;-82
2020/12/27 10:49:46;;;;;;;1.40;1.30;;;5.70;99.90;;;;;;4955796;28;20766;-81
2020/12/27 10:52:17;;;;;;;1.30;1.20;;;5.60;99.90;;;;;;4949199;29;20435;-82
2020/12/27 10:54:50;;;;;;;1.10;1.00;;;5.60;99.90;;;;;;4953594;28;20540;-80
2020/12/27 10:57:16;;;;;;;1.17;1.08;;;5.60;99.90;;;;;;4963031;28;20757;-81
2020/12/27 10:59:42;;;;;;;1.50;1.40;;;5.70;99.90;;;;;;4944035;28;20206;-81
2020/12/27 11:02:08;;;;;;;1.60;1.50;;;5.70;99.90;;;;;;4957354;28;20952;-80
2020/12/27 11:04:33;;;;;;;1.27;1.20;;;5.80;99.90;;;;;;4954626;28;20490;-81
2020/12/27 11:07:03;;;;;;;1.75;1.52;;;5.80;99.90;;;;;;4962092;28;20193;-81
2020/12/27 11:09:29;;;;;;;1.30;1.30;;;5.80;99.90;;;;;;4956113;28;20252;-81
2020/12/27 11:11:59;;;;;;;1.40;1.30;;;5.80;99.90;;;;;;4953718;28;20233;-80
2020/12/27 11:14:27;;;;;;;1.70;1.55;;;5.90;99.90;;;;;;4936986;29;20716;-82
2020/12/27 11:16:53;;;;;;;1.63;1.53;;;5.90;99.90;;;;;;4938690;29;20279;-82
2020/12/27 11:19:19;;;;;;;1.60;1.40;;;5.90;99.90;;;;;;4947168;29;20892;-83
2020/12/27 11:21:47;;;;;;;1.67;1.40;;;5.90;99.90;;;;;;4945186;28;20212;-83
2020/12/27 11:24:15;;;;;;;1.45;1.20;;;5.90;99.90;;;;;;4949714;28;20448;-83
2020/12/27 11:26:41;;;;;;;1.77;1.30;;;5.90;99.90;;;;;;4951624;29;20228;-83
2020/12/27 11:29:07;;;;;;;1.67;1.57;;;5.90;99.90;;;;;;4938856;29;20280;-83
2020/12/27 11:31:33;;;;;;;1.80;1.70;;;5.90;99.90;;;;;;4945538;29;20448;-83
2020/12/27 11:33:59;;;;;;;1.70;1.60;;;5.90;99.90;;;;;;4948246;29;20471;-82
2020/12/27 11:36:25;;;;;;;1.17;1.10;;;5.90;99.90;;;;;;4942795;28;20779;-81
2020/12/27 11:38:53;;;;;;;1.33;1.23;;;5.90;99.90;;;;;;4973637;28;20453;-82
2020/12/27 11:41:21;;;;;;;2.93;1.57;;;5.90;99.90;;;;;;4948093;29;20180;-81
2020/12/27 11:43:47;;;;;;;1.50;1.40;;;5.80;99.90;;;;;;4954100;29;20521;-80
2020/12/27 11:46:13;;;;;;;1.20;1.20;;;5.80;99.90;;;;;;4946753;29;20201;-82
2020/12/27 11:48:42;;;;;;;1.10;1.10;;;6.00;99.90;;;;;;4938577;29;20185;-83
2020/12/27 11:51:07;;;;;;;2.90;2.30;;;5.70;99.90;;;;;;4941801;29;20188;-82
2020/12/27 11:53:33;;;;;;;1.63;0.93;;;5.60;99.90;;;;;;4941647;28;20539;-80
2020/12/27 11:55:59;;;;;;;1.20;1.10;;;5.60;99.90;;;;;;4938850;29;20476;-81
2020/12/27 11:58:28;;;;;;;1.10;1.00;;;5.50;99.90;;;;;;4938574;29;20439;-83
2020/12/27 12:00:54;;;;;;;1.33;1.00;;;5.40;99.90;;;;;;4938676;29;20273;-82
2020/12/27 12:03:22;;;;;;;1.30;1.20;;;5.40;99.90;;;;;;4937541;29;20861;-84
2020/12/27 12:05:50;;;;;;;1.10;1.00;;;5.40;99.90;;;;;;4934723;29;21041;-79
2020/12/27 12:08:16;;;;;;;1.10;1.00;;;5.30;99.90;;;;;;4936499;29;20223;-81
2020/12/27 12:10:44;;;;;;;5.17;1.50;;;5.20;99.90;;;;;;4934116;29;20472;-79
2020/12/27 12:13:10;;;;;;;2.00;1.10;;;5.20;99.90;;;;;;4946841;28;20847;-82
2020/12/27 12:15:36;;;;;;;5.00;1.10;;;5.20;99.90;;;;;;4952948;29;20217;-80
2020/12/27 12:18:06;;;;;;;1.30;0.95;;;5.20;99.90;;;;;;4937318;29;20448;-81
2020/12/27 12:20:47;;;;;;;1.40;1.30;;;5.10;99.90;;;;;;4938117;29;20213;-80
2020/12/27 12:23:16;;;;;;;1.40;1.23;;;5.00;99.90;;;;;;4936977;29;20214;-79
2020/12/27 12:25:49;;;;;;;1.25;0.95;;;5.20;99.90;;;;;;4969748;28;20181;-80
2020/12/27 12:28:15;;;;;;;1.27;1.17;;;5.00;99.90;;;;;;4931101;29;20176;-83
2020/12/27 12:30:44;;;;;;;1.60;1.40;;;4.90;99.90;;;;;;4938001;29;20188;-81
2020/12/27 12:33:12;;;;;;;1.10;1.00;;;4.90;99.90;;;;;;4953052;29;20682;-81
2020/12/27 12:35:40;;;;;;;1.33;1.23;;;4.90;99.90;;;;;;4937729;29;20176;-80
2020/12/27 12:38:06;;;;;;;1.92;1.20;;;4.90;99.90;;;;;;4969232;28;20191;-83
2020/12/27 12:40:34;;;;;;;1.20;1.10;;;4.80;99.90;;;;;;4952917;29;20196;-82
2020/12/27 12:43:03;;;;;;;1.17;1.15;;;4.80;99.90;;;;;;4936689;29;20439;-82
2020/12/27 12:45:34;;;;;;;1.40;1.30;;;4.90;99.90;;;;;;4921555;29;20181;-83
2020/12/27 12:48:00;;;;;;;1.48;1.20;;;4.70;99.90;;;;;;4943057;29;20223;-82
2020/12/27 12:50:26;;;;;;;1.30;1.20;;;4.80;99.90;;;;;;4953188;29;20209;-81
2020/12/27 12:52:52;;;;;;;2.67;1.35;;;4.80;99.90;;;;;;4937182;29;20204;-82
2020/12/27 12:55:23;;;;;;;1.20;1.10;;;4.70;99.90;;;;;;4931962;29;20645;-81
2020/12/27 12:57:49;;;;;;;1.60;1.50;;;4.60;99.90;;;;;;4968264;28;20436;-80
2020/12/27 13:00:17;;;;;;;1.20;1.10;;;4.70;99.90;;;;;;4937540;29;20201;-80
2020/12/27 13:02:46;;;;;;;0.90;0.90;;;4.70;99.90;;;;;;4936933;29;20468;-80
2020/12/27 13:05:12;;;;;;;0.80;0.80;;;4.70;99.90;;;;;;4936840;29;20232;-80
2020/12/27 13:07:38;;;;;;;1.40;1.30;;;4.60;99.90;;;;;;4937315;29;20460;-81
2020/12/27 13:10:05;;;;;;;1.17;1.08;;;4.60;99.90;;;;;;4936219;29;20503;-81
2020/12/27 13:12:34;;;;;;;1.45;1.08;;;4.50;99.90;;;;;;4935749;29;20228;-80
2020/12/27 13:15:02;;;;;;;1.60;1.20;;;4.50;99.90;;;;;;4936045;29;20666;-79
2020/12/27 13:17:31;;;;;;;1.25;1.15;;;4.50;99.90;;;;;;4960230;28;20208;-83
2020/12/27 13:20:01;;;;;;;1.55;1.15;;;4.60;99.90;;;;;;4936313;29;20697;-81
2020/12/27 13:22:31;;;;;;;0.95;0.80;;;4.60;99.90;;;;;;4937737;29;20222;-80
2020/12/27 13:24:56;;;;;;;1.10;1.00;;;4.50;99.90;;;;;;4933682;29;20622;-81
2020/12/27 13:27:25;;;;;;;2.30;1.13;;;4.50;99.90;;;;;;4941081;29;20452;-81
2020/12/27 13:29:51;;;;;;;1.00;0.90;;;4.50;99.90;;;;;;4937099;29;20445;-82